createdAt,value
2019-05-26T00:01:12.919Z,100878.13
2019-05-26T00:03:19.393Z,100871.81
2019-05-26T00:05:26.751Z,100870.39
2019-05-26T00:07:33.125Z,100872.97
2019-05-26T00:09:39.526Z,100872.11
2019-05-26T00:11:46.470Z,100871.20
2019-05-26T00:13:54.270Z,100867.39
2019-05-26T00:16:00.850Z,100875.56
2019-05-26T00:18:07.200Z,100869.76
2019-05-26T00:20:14.669Z,100873.72
2019-05-26T00:22:23.513Z,100872.11
2019-05-26T00:24:29.865Z,100875.05
2019-05-26T00:26:36.092Z,100869.59
2019-05-26T00:28:42.790Z,100872.16
2019-05-26T00:30:49.190Z,100869.59
2019-05-26T00:32:56.128Z,100869.08
2019-05-26T00:35:02.400Z,100867.31
2019-05-26T00:37:08.957Z,100871.39
2019-05-26T00:39:15.328Z,100873.57
2019-05-26T00:41:21.765Z,100873.17
2019-05-26T00:43:32.346Z,100878.33
2019-05-26T00:45:39.029Z,100878.78
2019-05-26T00:47:45.786Z,100872.21
2019-05-26T00:49:52.165Z,100868.03
2019-05-26T00:51:58.529Z,100864.89
2019-05-26T00:54:05.072Z,100862.27
2019-05-26T00:56:11.959Z,100859.75
2019-05-26T00:58:18.215Z,100858.65
2019-05-26T01:00:44.839Z,100864.47
2019-05-26T01:02:51.132Z,100861.38
2019-05-26T01:04:57.660Z,100850.83
2019-05-26T01:07:05.156Z,100849.68
2019-05-26T01:09:11.850Z,100851.97
2019-05-26T01:11:19.450Z,100847.27
2019-05-26T01:13:25.720Z,100848.38
2019-05-26T01:15:32.884Z,100857.13
2019-05-26T01:17:39.344Z,100856.38
2019-05-26T01:19:45.702Z,100849.69
2019-05-26T01:21:53.791Z,100847.63
2019-05-26T01:24:00.475Z,100845.22
2019-05-26T01:26:08.401Z,100845.03
2019-05-26T01:28:14.614Z,100852.22
2019-05-26T01:30:24.803Z,100848.94
2019-05-26T01:32:31.256Z,100845.41
2019-05-26T01:34:37.519Z,100847.06
2019-05-26T01:36:43.979Z,100852.94
2019-05-26T01:38:52.244Z,100851.88
2019-05-26T01:40:58.557Z,100853.25
2019-05-26T01:43:05.102Z,100848.52
2019-05-26T01:45:12.116Z,100849.47
2019-05-26T01:47:18.463Z,100851.27
2019-05-26T01:49:24.717Z,100851.60
2019-05-26T01:51:31.092Z,100856.64
2019-05-26T01:53:37.646Z,100848.95
2019-05-26T01:55:44.013Z,100848.61
2019-05-26T01:57:50.382Z,100848.50
2019-05-26T01:59:58.436Z,100843.76
2019-05-26T02:02:05.269Z,100847.77
2019-05-26T02:04:13.046Z,100854.22
2019-05-26T02:06:19.820Z,100844.50
2019-05-26T02:08:38.440Z,100845.24
2019-05-26T02:10:34.082Z,100849.38
2019-05-26T02:12:40.439Z,100841.86
2019-05-26T02:14:46.906Z,100847.30
2019-05-26T02:16:53.154Z,100841.41
2019-05-26T02:18:59.528Z,100832.47
2019-05-26T02:21:06.074Z,100829.50
2019-05-26T02:23:13.271Z,100834.20
2019-05-26T02:25:20.935Z,100834.20
2019-05-26T02:27:27.346Z,100824.64
2019-05-26T02:29:33.610Z,100833.45
2019-05-26T02:31:39.867Z,100831.45
2019-05-26T02:33:46.449Z,100828.53
2019-05-26T02:35:52.715Z,100830.75
2019-05-26T02:37:59.132Z,100836.42
2019-05-26T02:40:08.774Z,100834.58
2019-05-26T02:42:19.779Z,100836.77
2019-05-26T02:44:26.951Z,100831.34
2019-05-26T02:46:34.035Z,100834.27
2019-05-26T02:48:40.414Z,100832.48
2019-05-26T02:50:46.751Z,100823.16
2019-05-26T02:52:53.290Z,100819.62
2019-05-26T02:54:59.587Z,100817.24
2019-05-26T02:57:05.951Z,100816.22
2019-05-26T02:59:12.533Z,100817.24
2019-05-26T03:01:19.877Z,100815.14
2019-05-26T03:03:26.778Z,100816.75
2019-05-26T03:05:34.048Z,100813.70
2019-05-26T03:07:43.952Z,100819.26
2019-05-26T03:09:51.906Z,100816.34
2019-05-26T03:12:00.704Z,100812.94
2019-05-26T03:14:07.601Z,100813.47
2019-05-26T03:16:18.546Z,100810.88
2019-05-26T03:18:24.807Z,100818.78
2019-05-26T03:20:35.614Z,100818.78
2019-05-26T03:22:47.881Z,100826.34
2019-05-26T03:24:55.168Z,100833.63
2019-05-26T03:27:01.980Z,100835.52
2019-05-26T03:29:08.296Z,100832.35
2019-05-26T03:31:14.799Z,100833.30
2019-05-26T03:33:22.261Z,100833.67
2019-05-26T03:35:29.653Z,100832.48
2019-05-26T03:37:35.902Z,100832.16
2019-05-26T03:39:45.965Z,100830.67
2019-05-26T03:41:51.279Z,100835.45
2019-05-26T03:43:57.555Z,100832.52
2019-05-26T03:46:20.407Z,100832.59
2019-05-26T03:48:27.273Z,100833.45
2019-05-26T03:50:33.564Z,100828.44
2019-05-26T03:52:39.895Z,100825.42
2019-05-26T03:54:46.175Z,100825.42
2019-05-26T03:56:53.251Z,100825.69
2019-05-26T03:58:59.801Z,100827.86
2019-05-26T04:01:06.603Z,100820.34
2019-05-26T04:03:12.937Z,100824.18
2019-05-26T04:05:19.217Z,100822.80
2019-05-26T04:07:29.071Z,100813.89
2019-05-26T04:09:38.496Z,100814.94
2019-05-26T04:11:44.728Z,100812.90
2019-05-26T04:13:51.940Z,100825.91
2019-05-26T04:15:58.404Z,100821.95
2019-05-26T04:18:04.964Z,100823.27
2019-05-26T04:20:11.492Z,100818.72
2019-05-26T04:22:17.776Z,100815.03
2019-05-26T04:24:24.352Z,100811.25
2019-05-26T04:26:30.834Z,100806.83
2019-05-26T04:34:56.081Z,100803.16
2019-05-26T04:37:02.333Z,100806.06
2019-05-26T04:39:09.203Z,100809.54
2019-05-26T04:41:15.468Z,100806.56
2019-05-26T04:43:21.811Z,100808.48
2019-05-26T04:47:33.421Z,100814.34
2019-05-26T04:49:40.856Z,100810.06
2019-05-26T04:51:47.166Z,100808.36
2019-05-26T04:53:53.528Z,100807.64
2019-05-26T04:56:00.097Z,100806.53
2019-05-26T04:58:07.894Z,100809.03
2019-05-26T05:00:16.001Z,100806.84
2019-05-26T05:02:22.265Z,100805.36
2019-05-26T05:04:28.728Z,100803.15
2019-05-26T05:06:35.085Z,100796.86
2019-05-26T05:08:41.564Z,100802.59
2019-05-26T05:10:47.916Z,100809.61
2019-05-26T05:12:54.373Z,100808.14
2019-05-26T05:15:02.478Z,100803.88
2019-05-26T05:17:09.265Z,100805.63
2019-05-26T05:19:15.612Z,100810.20
2019-05-26T05:21:22.181Z,100805.06
2019-05-26T05:23:28.544Z,100805.83
2019-05-26T05:25:36.448Z,100805.88
2019-05-26T05:27:42.895Z,100805.05
2019-05-26T05:29:49.291Z,100805.27
2019-05-26T05:31:55.541Z,100801.39
2019-05-26T05:34:01.781Z,100800.62
2019-05-26T05:36:08.058Z,100806.98
2019-05-26T05:38:15.332Z,100805.05
2019-05-26T05:40:22.105Z,100798.59
2019-05-26T05:42:28.342Z,100797.11
2019-05-26T05:44:34.719Z,100792.54
2019-05-26T05:46:40.984Z,100791.28
2019-05-26T05:48:47.249Z,100793.84
2019-05-26T05:50:53.500Z,100791.44
2019-05-26T05:52:59.784Z,100792.28
2019-05-26T05:55:08.385Z,100784.58
2019-05-26T05:57:14.636Z,100788.25
2019-05-26T05:59:21.814Z,100791.59
2019-05-26T06:01:28.095Z,100790.16
2019-05-26T06:03:34.548Z,100791.19
2019-05-26T06:05:40.915Z,100793.44
2019-05-26T06:07:48.740Z,100793.73
2019-05-26T06:09:55.215Z,100794.44
2019-05-26T06:12:01.537Z,100790.33
2019-05-26T06:14:07.794Z,100790.95
2019-05-26T06:16:14.245Z,100792.66
2019-05-26T06:18:20.837Z,100787.98
2019-05-26T06:20:27.090Z,100783.53
2019-05-26T06:22:33.363Z,100778.75
2019-05-26T06:24:39.919Z,100782.97
2019-05-26T06:26:46.260Z,100778.63
2019-05-26T06:28:52.876Z,100776.59
2019-05-26T06:30:59.212Z,100781.26
2019-05-26T06:33:05.683Z,100779.23
2019-05-26T06:35:12.995Z,100781.27
2019-05-26T06:37:19.230Z,100776.69
2019-05-26T06:39:25.887Z,100772.20
2019-05-26T06:41:34.010Z,100774.97
2019-05-26T06:43:40.693Z,100772.74
2019-05-26T06:45:47.133Z,100766.90
2019-05-26T06:47:54.937Z,100761.74
2019-05-26T06:50:02.859Z,100768.75
2019-05-26T06:52:09.385Z,100767.11
2019-05-26T06:54:15.787Z,100757.09
2019-05-26T06:56:22.125Z,100757.86
2019-05-26T06:58:29.810Z,100753.73
2019-05-26T07:00:36.205Z,100753.43
2019-05-26T07:02:42.939Z,100752.84
2019-05-26T07:04:49.525Z,100748.48
2019-05-26T07:06:56.483Z,100753.02
2019-05-26T07:09:02.957Z,100749.73
2019-05-26T07:11:09.514Z,100752.51
2019-05-26T07:13:15.906Z,100753.35
2019-05-26T07:15:22.460Z,100745.66
2019-05-26T07:17:29.331Z,100748.47
2019-05-26T07:19:35.911Z,100754.27
2019-05-26T07:21:42.580Z,100749.61
2019-05-26T07:23:48.934Z,100748.00
2019-05-26T07:25:55.195Z,100758.63
2019-05-26T07:28:01.446Z,100761.48
2019-05-26T07:30:09.626Z,100755.97
2019-05-26T07:32:15.929Z,100764.31
2019-05-26T07:34:22.301Z,100761.09
2019-05-26T07:36:28.670Z,100764.52
2019-05-26T07:38:35.224Z,100757.31
2019-05-26T07:40:41.583Z,100758.16
2019-05-26T07:42:48.958Z,100763.75
2019-05-26T07:44:55.228Z,100761.88
2019-05-26T07:47:01.505Z,100760.03
2019-05-26T07:49:08.171Z,100758.73
2019-05-26T07:51:14.627Z,100753.49
2019-05-26T07:53:21.186Z,100753.50
2019-05-26T07:55:27.435Z,100758.35
2019-05-26T07:57:33.800Z,100754.45
2019-05-26T07:59:40.285Z,100753.67
2019-05-26T08:01:46.647Z,100753.47
2019-05-26T08:03:53.589Z,100750.59
2019-05-26T08:05:59.858Z,100750.41
2019-05-26T08:08:12.598Z,100747.82
2019-05-26T08:10:15.055Z,100745.00
2019-05-26T08:12:26.164Z,100742.08
2019-05-26T08:14:29.545Z,100746.08
2019-05-26T08:16:35.793Z,100749.02
2019-05-26T08:18:42.766Z,100750.60
2019-05-26T08:20:49.021Z,100745.41
2019-05-26T08:22:56.822Z,100737.92
2019-05-26T08:25:03.375Z,100739.25
2019-05-26T08:27:09.836Z,100745.58
2019-05-26T08:29:17.635Z,100743.98
2019-05-26T08:31:24.743Z,100751.52
2019-05-26T08:33:31.195Z,100742.44
2019-05-26T08:35:38.805Z,100745.78
2019-05-26T08:37:46.591Z,100754.00
2019-05-26T08:39:53.239Z,100744.93
2019-05-26T08:41:59.819Z,100740.27
2019-05-26T08:44:07.408Z,100747.23
2019-05-26T08:46:15.505Z,100740.36
2019-05-26T08:48:21.794Z,100737.97
2019-05-26T08:50:28.220Z,100742.17
2019-05-26T08:52:34.488Z,100744.88
2019-05-26T08:54:40.849Z,100735.37
2019-05-26T08:56:47.225Z,100737.09
2019-05-26T08:58:53.581Z,100727.41
2019-05-26T09:00:59.945Z,100731.27
2019-05-26T09:03:06.329Z,100735.11
2019-05-26T09:05:13.407Z,100721.81
2019-05-26T09:07:21.285Z,100721.59
2019-05-26T09:09:27.564Z,100715.72
2019-05-26T09:11:38.028Z,100719.59
2019-05-26T09:13:43.781Z,100720.71
2019-05-26T09:15:50.315Z,100731.61
2019-05-26T09:18:00.874Z,100731.66
2019-05-26T09:20:11.753Z,100717.02
2019-05-26T09:22:18.730Z,100725.94
2019-05-26T09:24:25.141Z,100713.62
2019-05-26T09:26:31.446Z,100719.28
2019-05-26T09:28:39.373Z,100721.10
2019-05-26T09:30:47.274Z,100719.22
2019-05-26T09:32:55.340Z,100715.34
2019-05-26T09:35:04.016Z,100718.94
2019-05-26T09:37:10.400Z,100708.94
2019-05-26T09:39:16.737Z,100712.08
2019-05-26T09:41:24.495Z,100705.84
2019-05-26T09:43:32.323Z,100709.50
2019-05-26T09:45:40.120Z,100706.66
2019-05-26T09:47:46.671Z,100709.16
2019-05-26T09:49:53.733Z,100706.27
2019-05-26T09:52:01.929Z,100700.64
2019-05-26T09:54:12.520Z,100702.66
2019-05-26T09:56:17.945Z,100705.16
2019-05-26T09:58:24.299Z,100703.29
2019-05-26T10:00:30.991Z,100700.11
2019-05-26T10:02:37.480Z,100700.63
2019-05-26T10:04:46.439Z,100697.22
2019-05-26T10:06:54.363Z,100690.63
2019-05-26T10:09:02.181Z,100692.84
2019-05-26T10:11:08.923Z,100702.73
2019-05-26T10:13:30.790Z,100700.73
2019-05-26T10:15:26.267Z,100697.98
2019-05-26T10:17:33.749Z,100690.23
2019-05-26T10:19:40.003Z,100682.27
2019-05-26T10:21:46.561Z,100690.73
2019-05-26T10:23:53.352Z,100687.89
2019-05-26T10:25:59.705Z,100688.45
2019-05-26T10:28:05.980Z,100688.62
2019-05-26T10:30:15.309Z,100687.13
2019-05-26T10:32:21.867Z,100688.83
2019-05-26T10:34:28.260Z,100683.22
2019-05-26T10:36:34.507Z,100682.92
2019-05-26T10:38:42.802Z,100669.49
2019-05-26T10:40:49.064Z,100680.48
2019-05-26T10:42:55.324Z,100676.08
2019-05-26T10:45:02.190Z,100674.78
2019-05-26T10:47:08.473Z,100690.42
2019-05-26T10:49:14.744Z,100688.00
2019-05-26T10:51:21.173Z,100684.34
2019-05-26T10:53:28.889Z,100678.05
2019-05-26T10:55:35.542Z,100687.00
2019-05-26T10:57:42.024Z,100674.35
2019-05-26T10:59:48.265Z,100679.20
2019-05-26T11:01:55.254Z,100677.09
2019-05-26T11:04:01.602Z,100676.27
2019-05-26T11:06:08.182Z,100668.03
2019-05-26T11:08:14.418Z,100670.22
2019-05-26T11:10:21.543Z,100664.58
2019-05-26T11:12:28.184Z,100672.64
2019-05-26T11:14:34.449Z,100669.91
2019-05-26T11:16:40.707Z,100673.84
2019-05-26T11:18:47.291Z,100672.88
2019-05-26T11:20:53.659Z,100674.35
2019-05-26T11:23:00.247Z,100667.28
2019-05-26T11:25:10.891Z,100671.06
2019-05-26T11:27:19.931Z,100662.84
2019-05-26T11:29:26.440Z,100655.59
2019-05-26T11:31:32.924Z,100658.80
2019-05-26T11:33:39.746Z,100658.16
2019-05-26T11:35:46.265Z,100660.23
2019-05-26T11:37:52.522Z,100660.61
2019-05-26T11:40:00.328Z,100665.48
2019-05-26T11:42:13.125Z,100656.04
2019-05-26T11:44:18.319Z,100659.22
2019-05-26T11:46:23.500Z,100659.39
2019-05-26T11:48:29.770Z,100663.77
2019-05-26T11:50:36.153Z,100654.77
2019-05-26T11:52:42.413Z,100658.64
2019-05-26T11:54:48.986Z,100659.98
2019-05-26T11:56:55.234Z,100650.39
2019-05-26T11:59:01.781Z,100650.16
2019-05-26T12:01:08.139Z,100650.45
2019-05-26T12:03:14.395Z,100649.42
2019-05-26T12:05:20.864Z,100656.23
2019-05-26T12:07:27.139Z,100649.33
2019-05-26T12:09:35.070Z,100646.28
2019-05-26T12:11:41.593Z,100643.48
2019-05-26T12:13:47.980Z,100649.69
2019-05-26T12:15:54.229Z,100635.34
2019-05-26T12:18:00.904Z,100634.75
2019-05-26T12:20:08.900Z,100631.59
2019-05-26T12:22:15.380Z,100635.26
2019-05-26T12:24:33.824Z,100633.27
2019-05-26T12:26:40.080Z,100630.95
2019-05-26T12:28:47.455Z,100627.00
2019-05-26T12:30:55.161Z,100628.30
2019-05-26T12:33:02.343Z,100617.08
2019-05-26T12:35:10.523Z,100617.00
2019-05-26T12:37:16.890Z,100619.20
2019-05-26T12:39:23.142Z,100617.63
2019-05-26T12:41:37.360Z,100616.43
2019-05-26T12:43:45.725Z,100615.56
2019-05-26T12:45:52.426Z,100614.59
2019-05-26T12:47:58.950Z,100614.61
2019-05-26T12:50:09.625Z,100617.16
2019-05-26T12:52:16.193Z,100621.52
2019-05-26T12:54:22.534Z,100610.14
2019-05-26T12:56:28.894Z,100599.08
2019-05-26T12:58:36.292Z,100605.75
2019-05-26T13:00:48.704Z,100596.17
2019-05-26T13:02:52.340Z,100599.88
2019-05-26T13:04:59.211Z,100593.92
2019-05-26T13:07:06.049Z,100588.27
2019-05-26T13:09:13.945Z,100590.73
2019-05-26T13:11:22.775Z,100591.64
2019-05-26T13:13:28.624Z,100588.73
2019-05-26T13:15:35.179Z,100578.05
2019-05-26T13:17:42.569Z,100575.74
2019-05-26T13:19:48.848Z,100572.71
2019-05-26T13:21:55.919Z,100569.31
2019-05-26T13:24:02.163Z,100570.28
2019-05-26T13:26:08.432Z,100571.98
2019-05-26T13:28:15.081Z,100568.52
2019-05-26T13:30:24.832Z,100566.81
2019-05-26T13:32:31.404Z,100566.36
2019-05-26T13:34:38.692Z,100565.06
2019-05-26T13:36:45.070Z,100550.38
2019-05-26T13:38:51.301Z,100554.51
2019-05-26T13:40:57.580Z,100562.40
2019-05-26T13:43:04.128Z,100555.10
2019-05-26T13:45:21.688Z,100552.65
2019-05-26T13:47:26.247Z,100537.11
2019-05-26T13:49:29.796Z,100553.62
2019-05-26T13:51:37.067Z,100545.73
2019-05-26T13:53:45.065Z,100546.84
2019-05-26T13:55:51.313Z,100548.52
2019-05-26T13:58:00.690Z,100543.30
2019-05-26T14:00:16.439Z,100538.42
2019-05-26T14:02:23.014Z,100535.36
2019-05-26T14:04:29.577Z,100540.88
2019-05-26T14:06:36.044Z,100537.84
2019-05-26T14:08:42.400Z,100526.64
2019-05-26T14:10:48.670Z,100534.42
2019-05-26T14:12:55.142Z,100541.38
2019-05-26T14:15:02.413Z,100540.42
2019-05-26T14:17:08.670Z,100540.05
2019-05-26T14:19:16.383Z,100537.72
2019-05-26T14:21:22.730Z,100532.37
2019-05-26T14:23:28.989Z,100531.31
2019-05-26T14:25:35.870Z,100532.77
2019-05-26T14:27:42.151Z,100519.04
2019-05-26T14:29:48.510Z,100515.89
2019-05-26T14:31:55.063Z,100513.55
2019-05-26T14:34:01.742Z,100526.19
2019-05-26T14:36:08.704Z,100530.45
2019-05-26T14:38:16.601Z,100525.37
2019-05-26T14:40:22.877Z,100521.97
2019-05-26T14:42:29.139Z,100517.84
2019-05-26T14:44:35.501Z,100508.73
2019-05-26T14:46:42.157Z,100509.89
2019-05-26T14:48:48.415Z,100507.52
2019-05-26T14:50:54.881Z,100517.22
2019-05-26T14:53:01.349Z,100506.05
2019-05-26T14:55:09.313Z,100510.31
2019-05-26T14:57:16.049Z,100519.91
2019-05-26T14:59:22.349Z,100514.92
2019-05-26T15:01:28.857Z,100512.34
2019-05-26T15:03:35.115Z,100503.02
2019-05-26T15:05:41.383Z,100496.95
2019-05-26T15:07:48.042Z,100502.89
2019-05-26T15:09:54.719Z,100497.34
2019-05-26T15:12:00.978Z,100492.69
2019-05-26T15:14:08.563Z,100499.11
2019-05-26T15:16:15.273Z,100492.56
2019-05-26T15:18:21.604Z,100492.60
2019-05-26T15:20:28.391Z,100492.34
2019-05-26T15:22:34.741Z,100488.23
2019-05-26T15:24:41.586Z,100483.60
2019-05-26T15:26:47.970Z,100480.33
2019-05-26T15:28:54.227Z,100478.76
2019-05-26T15:31:00.589Z,100487.13
2019-05-26T15:33:08.497Z,100482.03
2019-05-26T15:35:15.365Z,100485.77
2019-05-26T15:37:21.733Z,100482.75
2019-05-26T15:39:28.009Z,100482.14
2019-05-26T15:41:36.943Z,100474.02
2019-05-26T15:43:43.173Z,100475.95
2019-05-26T15:45:49.546Z,100471.33
2019-05-26T15:47:55.900Z,100475.92
2019-05-26T15:50:02.164Z,100480.33
2019-05-26T15:52:09.961Z,100472.17
2019-05-26T15:54:16.210Z,100474.23
2019-05-26T15:56:22.465Z,100473.28
2019-05-26T15:58:28.737Z,100465.28
2019-05-26T16:00:34.995Z,100471.36
2019-05-26T16:02:41.973Z,100469.83
2019-05-26T16:04:49.763Z,100467.03
2019-05-26T16:06:56.337Z,100456.52
2019-05-26T16:09:02.702Z,100464.81
2019-05-26T16:11:10.098Z,100458.50
2019-05-26T16:13:16.543Z,100455.91
2019-05-26T16:15:23.175Z,100458.19
2019-05-26T16:17:29.573Z,100461.09
2019-05-26T16:19:38.200Z,100455.62
2019-05-26T16:21:44.654Z,100452.70
2019-05-26T16:23:51.020Z,100450.05
2019-05-26T16:25:57.299Z,100459.70
2019-05-26T16:28:04.972Z,100447.13
2019-05-26T16:30:12.289Z,100447.02
2019-05-26T16:32:19.093Z,100453.85
2019-05-26T16:34:25.600Z,100449.37
2019-05-26T16:36:31.852Z,100447.69
2019-05-26T16:38:38.252Z,100443.89
2019-05-26T16:40:45.131Z,100447.78
2019-05-26T16:42:51.484Z,100444.27
2019-05-26T16:44:58.135Z,100444.02
2019-05-26T16:47:04.584Z,100444.64
2019-05-26T16:49:10.864Z,100442.20
2019-05-26T16:51:17.517Z,100454.00
2019-05-26T16:53:23.926Z,100449.24
2019-05-26T16:55:30.145Z,100448.63
2019-05-26T16:57:36.722Z,100442.57
2019-05-26T16:59:43.079Z,100444.15
2019-05-26T17:01:49.524Z,100443.06
2019-05-26T17:03:56.314Z,100443.30
2019-05-26T17:06:08.200Z,100442.71
2019-05-26T17:08:14.095Z,100447.53
2019-05-26T17:10:21.084Z,100443.19
2019-05-26T17:12:27.618Z,100441.73
2019-05-26T17:14:34.066Z,100444.88
2019-05-26T17:16:40.555Z,100442.93
2019-05-26T17:18:46.947Z,100448.99
2019-05-26T17:20:53.567Z,100444.37
2019-05-26T17:23:00.335Z,100440.75
2019-05-26T17:25:08.446Z,100434.94
2019-05-26T17:27:14.887Z,100436.01
2019-05-26T17:29:21.387Z,100435.29
2019-05-26T17:31:27.875Z,100429.34
2019-05-26T17:33:34.921Z,100435.16
2019-05-26T17:35:41.300Z,100429.31
2019-05-26T17:37:47.760Z,100430.27
2019-05-26T17:39:54.017Z,100428.91
2019-05-26T17:42:00.587Z,100426.85
2019-05-26T17:44:07.869Z,100427.67
2019-05-26T17:46:15.274Z,100428.87
2019-05-26T17:48:21.836Z,100430.19
2019-05-26T17:50:28.205Z,100426.66
2019-05-26T17:52:34.577Z,100418.16
2019-05-26T17:54:41.021Z,100418.66
2019-05-26T17:56:47.374Z,100416.48
2019-05-26T17:58:54.971Z,100421.33
2019-05-26T18:01:01.333Z,100417.81
2019-05-26T18:03:07.708Z,100411.38
2019-05-26T18:05:18.294Z,100414.05
2019-05-26T18:07:25.726Z,100415.72
2019-05-26T18:09:43.709Z,100408.33
2019-05-26T18:11:43.222Z,100412.43
2019-05-26T18:13:49.556Z,100402.96
2019-05-26T18:15:57.637Z,100407.19
2019-05-26T18:18:05.441Z,100417.13
2019-05-26T18:20:15.700Z,100408.27
2019-05-26T18:22:22.324Z,100408.73
2019-05-26T18:24:30.379Z,100406.77
2019-05-26T18:26:37.031Z,100411.58
2019-05-26T18:28:43.770Z,100414.70
2019-05-26T18:30:50.072Z,100410.31
2019-05-26T18:32:58.165Z,100410.01
2019-05-26T18:35:06.807Z,100411.77
2019-05-26T18:37:13.667Z,100413.30
2019-05-26T18:39:20.644Z,100421.48
2019-05-26T18:41:27.118Z,100422.50
2019-05-26T18:43:33.936Z,100421.83
2019-05-26T18:45:46.115Z,100421.89
2019-05-26T18:48:03.084Z,100423.50
2019-05-26T18:50:02.709Z,100429.01
2019-05-26T18:52:11.452Z,100424.81
2019-05-26T18:54:19.453Z,100432.72
2019-05-26T18:56:27.652Z,100426.95
2019-05-26T18:58:34.518Z,100432.86
2019-05-26T19:00:41.070Z,100424.72
2019-05-26T19:02:47.747Z,100426.05
2019-05-26T19:04:54.476Z,100426.86
2019-05-26T19:07:00.889Z,100426.69
2019-05-26T19:09:10.720Z,100422.19
2019-05-26T19:11:17.336Z,100429.01
2019-05-26T19:13:25.377Z,100434.06
2019-05-26T19:15:31.748Z,100427.75
2019-05-26T19:17:40.091Z,100430.63
2019-05-26T19:19:47.249Z,100433.54
2019-05-26T19:21:53.960Z,100433.16
2019-05-26T19:24:00.795Z,100433.16
2019-05-26T19:26:07.765Z,100432.98
2019-05-26T19:28:17.632Z,100423.80
2019-05-26T19:30:24.629Z,100429.68
2019-05-26T19:32:31.436Z,100422.95
2019-05-26T19:34:40.377Z,100429.68
2019-05-26T19:36:48.134Z,100424.37
2019-05-26T19:38:54.864Z,100428.09
2019-05-26T19:41:04.284Z,100419.86
2019-05-26T19:43:12.487Z,100421.66
2019-05-26T19:45:19.285Z,100420.45
2019-05-26T19:47:25.622Z,100419.89
2019-05-26T19:49:33.824Z,100425.15
2019-05-26T19:51:41.935Z,100422.23
2019-05-26T19:53:48.287Z,100416.16
2019-05-26T19:55:56.487Z,100418.80
2019-05-26T19:58:02.996Z,100414.47
2019-05-26T20:00:19.368Z,100410.48
2019-05-26T20:02:25.626Z,100409.51
2019-05-26T20:04:32.301Z,100414.27
2019-05-26T20:06:38.782Z,100416.80
2019-05-26T20:08:46.583Z,100415.08
2019-05-26T20:10:53.345Z,100410.16
2019-05-26T20:13:00.601Z,100408.36
2019-05-26T20:15:11.082Z,100404.38
2019-05-26T20:17:23.182Z,100409.09
2019-05-26T20:19:29.869Z,100406.82
2019-05-26T20:21:37.655Z,100404.75
2019-05-26T20:23:45.739Z,100407.41
2019-05-26T20:25:52.218Z,100408.83
2019-05-26T20:28:00.327Z,100409.95
2019-05-26T20:30:09.443Z,100413.93
2019-05-26T20:32:15.931Z,100411.75
2019-05-26T20:34:23.588Z,100410.06
2019-05-26T20:36:30.161Z,100410.16
2019-05-26T20:38:37.124Z,100417.19
2019-05-26T20:40:43.838Z,100411.95
2019-05-26T20:42:53.137Z,100421.84
2019-05-26T20:45:00.019Z,100419.28
2019-05-26T20:47:06.730Z,100421.67
2019-05-26T20:49:13.043Z,100421.67
2019-05-26T20:51:20.833Z,100417.21
2019-05-26T20:53:28.513Z,100421.49
2019-05-26T20:55:35.425Z,100422.00
2019-05-26T20:57:41.783Z,100419.81
2019-05-26T20:59:49.777Z,100422.56
2019-05-26T21:01:56.242Z,100422.67
2019-05-26T21:04:04.773Z,100427.69
2019-05-26T21:06:12.755Z,100431.88
2019-05-26T21:08:20.646Z,100432.00
2019-05-26T21:10:27.438Z,100429.42
2019-05-26T21:12:35.008Z,100422.44
2019-05-26T21:14:41.278Z,100426.98
2019-05-26T21:16:49.706Z,100425.86
2019-05-26T21:18:56.085Z,100426.05
2019-05-26T21:21:05.443Z,100428.41
2019-05-26T21:23:11.851Z,100430.03
2019-05-26T21:25:18.610Z,100431.09
2019-05-26T21:27:24.882Z,100428.25
2019-05-26T21:29:31.237Z,100423.73
2019-05-26T21:31:37.935Z,100424.41
2019-05-26T21:33:45.629Z,100425.34
2019-05-26T21:35:51.977Z,100425.95
2019-05-26T21:37:58.603Z,100422.72
2019-05-26T21:40:07.778Z,100424.45
2019-05-26T21:42:16.033Z,100423.44
2019-05-26T21:44:24.417Z,100432.91
2019-05-26T21:46:30.651Z,100419.07
2019-05-26T21:48:37.098Z,100423.72
2019-05-26T21:50:45.096Z,100420.98
2019-05-26T21:52:51.779Z,100424.22
2019-05-26T21:54:59.872Z,100418.73
2019-05-26T21:57:06.123Z,100415.88
2019-05-26T21:59:12.408Z,100415.10
2019-05-26T22:01:18.837Z,100414.28
2019-05-26T22:03:25.111Z,100419.20
2019-05-26T22:05:31.914Z,100419.28
2019-05-26T22:07:38.142Z,100420.72
2019-05-26T22:09:44.400Z,100414.55
2019-05-26T22:11:50.658Z,100416.47
2019-05-26T22:13:58.361Z,100417.13
2019-05-26T22:16:06.299Z,100419.20
2019-05-26T22:18:14.562Z,100417.88
2019-05-26T22:20:21.118Z,100418.06
2019-05-26T22:22:27.402Z,100412.95
2019-05-26T22:24:33.637Z,100406.41
2019-05-26T22:26:40.120Z,100408.12
2019-05-26T22:28:46.357Z,100401.97
2019-05-26T22:30:53.027Z,100397.52
2019-05-26T22:32:59.411Z,100391.75
2019-05-26T22:35:09.051Z,100388.90
2019-05-26T22:37:15.298Z,100381.80
2019-05-26T22:39:22.068Z,100382.35
2019-05-26T22:41:28.332Z,100382.08
2019-05-26T22:43:34.600Z,100379.55
2019-05-26T22:45:40.855Z,100376.42
2019-05-26T22:47:47.107Z,100378.38
2019-05-26T22:49:53.374Z,100374.40
2019-05-26T22:51:59.651Z,100377.91
2019-05-26T22:54:05.919Z,100371.00
2019-05-26T22:56:12.266Z,100372.80
2019-05-26T22:58:18.524Z,100372.44
2019-05-26T23:00:25.118Z,100376.89
2019-05-26T23:02:31.994Z,100370.73
2019-05-26T23:04:38.320Z,100375.92
2019-05-26T23:06:44.577Z,100376.89
2019-05-26T23:08:50.841Z,100375.65
2019-05-26T23:10:57.318Z,100369.22
2019-05-26T23:13:03.583Z,100375.45
2019-05-26T23:15:13.172Z,100372.72
2019-05-26T23:17:21.209Z,100369.33
2019-05-26T23:19:27.689Z,100370.81
2019-05-26T23:21:33.943Z,100362.09
2019-05-26T23:23:40.197Z,100358.69
2019-05-26T23:25:46.454Z,100357.17
2019-05-26T23:27:52.820Z,100356.12
2019-05-26T23:30:00.429Z,100353.58
2019-05-26T23:32:06.675Z,100353.39
2019-05-26T23:34:12.939Z,100350.07
2019-05-26T23:36:19.203Z,100351.12
2019-05-26T23:38:28.522Z,100348.08
2019-05-26T23:40:34.785Z,100349.72
2019-05-26T23:42:41.049Z,100345.74
2019-05-26T23:44:47.404Z,100346.95
2019-05-26T23:46:54.469Z,100340.25
2019-05-26T23:49:02.790Z,100341.85
2019-05-26T23:51:09.049Z,100341.27
2019-05-26T23:53:15.312Z,100345.44
2019-05-26T23:55:21.672Z,100340.53
2019-05-26T23:57:27.951Z,100343.84
2019-05-26T23:59:34.201Z,100337.02
